Time;durP1;ratioP1;P1;durP2;ratioP2;P2;SDS_P1;SDS_P2;PMS_P1;PMS_P2;Temp;Humidity;BMP_temperature;BMP_pressure;BME280_temperature;BME280_humidity;BME280_pressure;Samples;Min_cycle;Max_cycle;Signal;HPM_P1;HPM_P2
2024/03/27 00:02:07;;;;;;;10.23;3.97;;;24.20;70.30;;;;;;5075492;28;20216;-71
2024/03/27 00:04:35;;;;;;;9.63;4.10;;;24.00;70.40;;;;;;5069857;28;20217;-73
2024/03/27 00:07:02;;;;;;;11.63;4.00;;;23.90;70.70;;;;;;5077894;28;20179;-73
2024/03/27 00:09:29;;;;;;;10.13;4.13;;;23.70;70.70;;;;;;5080631;28;20215;-72
2024/03/27 00:11:57;;;;;;;9.70;4.17;;;23.60;71.00;;;;;;5073768;28;20252;-73
2024/03/27 00:14:24;;;;;;;9.70;3.37;;;23.50;70.70;;;;;;5073556;28;20528;-72
2024/03/27 00:16:51;;;;;;;10.60;4.17;;;23.60;71.00;;;;;;5072693;28;20635;-73
2024/03/27 00:19:19;;;;;;;9.53;3.73;;;23.60;71.00;;;;;;5070602;28;20186;-71
2024/03/27 00:21:46;;;;;;;10.47;3.53;;;23.90;70.30;;;;;;5071486;28;20171;-71
2024/03/27 00:24:14;;;;;;;8.17;3.53;;;24.10;69.40;;;;;;5074337;28;20175;-72
2024/03/27 00:26:41;;;;;;;9.07;3.43;;;24.10;68.90;;;;;;5070742;28;20313;-71
2024/03/27 00:29:10;;;;;;;10.93;3.70;;;24.10;69.10;;;;;;5081169;28;20630;-72
2024/03/27 00:31:38;;;;;;;7.77;3.50;;;24.10;69.10;;;;;;5075152;28;20237;-71
2024/03/27 00:34:08;;;;;;;9.80;3.33;;;24.40;68.40;;;;;;5062844;28;20240;-75
2024/03/27 00:36:36;;;;;;;7.63;3.13;;;24.40;67.40;;;;;;5055524;28;20282;-74
2024/03/27 00:39:06;;;;;;;7.47;2.90;;;24.30;67.50;;;;;;5074118;28;20352;-74
2024/03/27 00:41:34;;;;;;;8.40;3.53;;;24.30;66.70;;;;;;5078098;28;20186;-74
2024/03/27 00:44:01;;;;;;;7.50;3.13;;;24.20;67.20;;;;;;5071229;28;20183;-72
2024/03/27 00:46:29;;;;;;;10.03;3.17;;;24.10;66.60;;;;;;5076657;28;20210;-74
2024/03/27 00:48:58;;;;;;;8.03;3.33;;;24.10;67.30;;;;;;5058397;28;20187;-72
2024/03/27 00:51:26;;;;;;;15.70;4.30;;;24.00;68.00;;;;;;5076977;28;20210;-73
2024/03/27 00:53:53;;;;;;;9.63;3.60;;;24.00;69.00;;;;;;5070934;28;20190;-74
2024/03/27 00:56:22;;;;;;;6.33;3.03;;;24.40;68.00;;;;;;5073441;28;20175;-73
2024/03/27 00:58:51;;;;;;;7.73;3.63;;;24.80;66.20;;;;;;5067975;28;20180;-72
2024/03/27 01:01:18;;;;;;;5.73;3.43;;;24.80;66.30;;;;;;5077785;28;20179;-72
2024/03/27 01:03:46;;;;;;;7.60;3.30;;;24.70;66.50;;;;;;5071729;28;20206;-74
2024/03/27 01:06:13;;;;;;;9.90;3.10;;;24.80;65.80;;;;;;5064979;28;20268;-74
2024/03/27 01:08:41;;;;;;;8.20;3.27;;;24.80;65.90;;;;;;5058365;28;20556;-73
2024/03/27 01:11:08;;;;;;;8.57;3.07;;;24.80;65.80;;;;;;5071258;28;20214;-74
2024/03/27 01:13:36;;;;;;;9.37;3.43;;;24.90;65.70;;;;;;5071108;28;20195;-74
2024/03/27 01:16:04;;;;;;;9.63;3.37;;;25.00;65.20;;;;;;5071987;28;20206;-73
2024/03/27 01:18:31;;;;;;;10.47;3.60;;;24.80;65.40;;;;;;5053157;28;20182;-74
2024/03/27 01:20:59;;;;;;;11.53;3.33;;;24.50;65.70;;;;;;5072718;28;20189;-75
2024/03/27 01:23:26;;;;;;;7.27;3.40;;;24.70;66.00;;;;;;5070803;28;20538;-72
2024/03/27 01:25:54;;;;;;;6.87;3.13;;;24.80;65.40;;;;;;5078190;28;20184;-73
2024/03/27 01:28:22;;;;;;;8.93;3.00;;;24.80;63.60;;;;;;5072162;28;20635;-73
2024/03/27 01:30:50;;;;;;;9.10;3.33;;;24.70;64.60;;;;;;5073575;28;20198;-73
2024/03/27 01:33:19;;;;;;;6.47;2.80;;;24.90;64.60;;;;;;5073820;28;20243;-72
2024/03/27 01:35:47;;;;;;;7.73;2.77;;;25.30;63.50;;;;;;5067816;28;20560;-73
2024/03/27 01:38:16;;;;;;;8.37;3.20;;;25.30;62.60;;;;;;5083518;28;20284;-74
2024/03/27 01:40:43;;;;;;;8.57;2.90;;;25.60;63.00;;;;;;5051657;28;20203;-73
2024/03/27 01:43:17;;;;;;;6.93;2.70;;;25.70;62.20;;;;;;5057773;28;20723;-70
2024/03/27 01:45:45;;;;;;;7.77;3.00;;;26.10;61.40;;;;;;5052419;28;20226;-72
2024/03/27 01:48:13;;;;;;;7.60;3.27;;;26.00;60.60;;;;;;5050236;28;20258;-70
2024/03/27 01:50:41;;;;;;;5.47;3.13;;;25.70;62.10;;;;;;5058324;28;20292;-73
2024/03/27 01:53:11;;;;;;;9.07;3.17;;;25.40;63.10;;;;;;5084738;28;20554;-70
2024/03/27 01:55:39;;;;;;;9.97;3.43;;;25.10;64.20;;;;;;5050985;28;20245;-74
2024/03/27 01:58:07;;;;;;;9.77;3.40;;;25.10;64.60;;;;;;5052656;28;20563;-70
2024/03/27 02:00:35;;;;;;;8.23;3.67;;;25.10;65.40;;;;;;5049699;28;20654;-70
2024/03/27 02:03:04;;;;;;;9.37;3.37;;;25.40;65.20;;;;;;5053870;28;20681;-70
2024/03/27 02:05:32;;;;;;;8.77;3.03;;;25.50;65.30;;;;;;5051179;28;20191;-71
2024/03/27 02:08:01;;;;;;;10.27;3.97;;;25.50;64.70;;;;;;5050126;28;20227;-70
2024/03/27 02:10:29;;;;;;;9.70;3.60;;;25.60;64.30;;;;;;5057613;28;20180;-71
2024/03/27 02:12:56;;;;;;;8.23;3.30;;;25.70;65.50;;;;;;5054876;28;20554;-72
2024/03/27 02:15:24;;;;;;;14.03;3.90;;;25.60;64.90;;;;;;5052248;28;20639;-71
2024/03/27 02:17:51;;;;;;;7.70;3.40;;;25.80;64.90;;;;;;5056320;28;20190;-71
2024/03/27 02:20:19;;;;;;;8.70;3.53;;;26.00;63.70;;;;;;5056828;28;20273;-71
2024/03/27 02:22:47;;;;;;;14.07;3.60;;;26.30;62.70;;;;;;5054204;28;20188;-71
2024/03/27 02:25:18;;;;;;;8.07;2.90;;;26.70;61.80;;;;;;5055267;28;20555;-70
2024/03/27 02:27:45;;;;;;;6.60;2.40;;;26.90;60.00;;;;;;5051431;28;20194;-74
2024/03/27 02:30:13;;;;;;;7.17;2.73;;;27.30;57.90;;;;;;5052622;28;20216;-70
2024/03/27 02:32:40;;;;;;;10.73;3.67;;;27.20;58.30;;;;;;5055763;28;20223;-70
2024/03/27 02:35:14;;;;;;;7.30;2.73;;;27.70;57.30;;;;;;5050982;28;20187;-71
2024/03/27 02:37:41;;;;;;;5.07;2.47;;;27.80;56.40;;;;;;5053913;28;20241;-71
2024/03/27 02:40:09;;;;;;;7.87;2.80;;;27.30;56.00;;;;;;5069961;28;20187;-68
2024/03/27 02:42:36;;;;;;;8.60;2.90;;;26.90;58.80;;;;;;5073136;28;20682;-73
2024/03/27 02:45:04;;;;;;;8.03;2.97;;;26.30;59.20;;;;;;5070294;28;20180;-70
2024/03/27 02:47:31;;;;;;;7.30;2.83;;;26.10;60.20;;;;;;5072882;28;20228;-69
2024/03/27 02:49:59;;;;;;;8.60;2.73;;;25.80;59.40;;;;;;5073049;28;20175;-69
2024/03/27 02:52:26;;;;;;;7.80;3.20;;;26.20;59.90;;;;;;5070873;28;20302;-69
2024/03/27 02:54:53;;;;;;;8.03;2.97;;;26.30;59.70;;;;;;5072902;28;20250;-69
2024/03/27 02:57:20;;;;;;;9.33;3.50;;;26.10;60.30;;;;;;5072183;28;20224;-70
2024/03/27 02:59:48;;;;;;;7.90;3.03;;;26.30;60.30;;;;;;5069509;28;20274;-74
2024/03/27 03:02:15;;;;;;;10.97;3.03;;;25.90;60.50;;;;;;5077642;28;20315;-70
2024/03/27 03:04:42;;;;;;;7.93;3.10;;;25.80;60.80;;;;;;5091707;28;20182;-71
2024/03/27 03:07:10;;;;;;;10.80;3.23;;;25.70;61.50;;;;;;5069731;28;20183;-71
2024/03/27 03:09:38;;;;;;;10.57;3.40;;;25.80;61.40;;;;;;5071196;28;20171;-70
2024/03/27 03:12:05;;;;;;;8.87;3.07;;;26.20;60.40;;;;;;5075499;28;20219;-70
2024/03/27 03:14:33;;;;;;;6.63;3.10;;;25.90;60.80;;;;;;5072625;28;20179;-73
2024/03/27 03:17:02;;;;;;;9.27;3.20;;;26.00;61.00;;;;;;5076375;28;20182;-71
2024/03/27 03:19:30;;;;;;;14.13;4.03;;;26.30;59.70;;;;;;5073783;28;20179;-72
2024/03/27 03:21:57;;;;;;;15.97;3.60;;;26.90;58.30;;;;;;5075608;28;20655;-71
2024/03/27 03:24:24;;;;;;;8.87;3.37;;;27.30;58.50;;;;;;5075824;28;20477;-72
2024/03/27 03:26:52;;;;;;;11.30;3.07;;;27.00;58.60;;;;;;5076557;28;20651;-71
2024/03/27 03:29:19;;;;;;;9.37;3.23;;;27.30;57.90;;;;;;5076041;28;20205;-70
2024/03/27 03:31:46;;;;;;;9.77;3.10;;;28.10;56.00;;;;;;5075523;28;20716;-73
2024/03/27 03:34:14;;;;;;;10.50;3.57;;;27.90;54.60;;;;;;5071453;28;20167;-71
2024/03/27 03:36:41;;;;;;;8.10;3.77;;;27.60;56.20;;;;;;5072536;28;20550;-70
2024/03/27 03:39:09;;;;;;;6.83;3.30;;;27.30;57.30;;;;;;5077523;28;20207;-71
2024/03/27 03:41:36;;;;;;;8.77;3.50;;;26.70;59.10;;;;;;5070793;28;20255;-71
2024/03/27 03:44:03;;;;;;;10.27;3.70;;;26.90;59.50;;;;;;5077104;28;20189;-73
2024/03/27 03:46:31;;;;;;;10.27;3.07;;;27.50;57.50;;;;;;5071856;28;21465;-71
2024/03/27 03:48:58;;;;;;;11.37;3.30;;;28.40;55.20;;;;;;5075583;28;20205;-72
2024/03/27 03:51:25;;;;;;;10.80;3.00;;;28.50;53.90;;;;;;5074504;28;20222;-70
2024/03/27 03:53:53;;;;;;;12.40;3.40;;;29.20;53.70;;;;;;5074794;28;20310;-70
2024/03/27 03:56:21;;;;;;;9.18;3.15;;;29.70;51.80;;;;;;5075704;28;20178;-70
2024/03/27 03:58:48;;;;;;;12.20;3.25;;;30.10;51.10;;;;;;5073464;28;20193;-71
2024/03/27 04:01:15;;;;;;;9.57;3.67;;;30.00;50.30;;;;;;5078253;28;20255;-70
2024/03/27 04:03:43;;;;;;;12.65;3.67;;;29.80;51.50;;;;;;5073584;28;20278;-71
2024/03/27 04:06:11;;;;;;;6.95;3.40;;;29.80;50.90;;;;;;5079071;28;20550;-70
2024/03/27 04:08:38;;;;;;;8.15;3.17;;;29.90;51.30;;;;;;5074108;28;20194;-69
2024/03/27 04:11:05;;;;;;;9.70;3.30;;;29.20;52.20;;;;;;5076259;28;20209;-70
2024/03/27 04:13:32;;;;;;;12.00;2.97;;;28.40;54.90;;;;;;5078080;28;20274;-69
2024/03/27 04:16:02;;;;;;;5.40;2.75;;;29.00;52.90;;;;;;5075895;28;20187;-71
2024/03/27 04:18:29;;;;;;;5.93;2.53;;;29.30;51.70;;;;;;5074656;28;20179;-70
2024/03/27 04:20:56;;;;;;;9.13;2.73;;;29.80;50.60;;;;;;5075380;28;20262;-71
2024/03/27 04:23:24;;;;;;;12.03;2.77;;;29.10;52.50;;;;;;5076520;28;20217;-70
2024/03/27 04:25:51;;;;;;;7.15;2.97;;;29.00;52.10;;;;;;5078177;28;20183;-71
2024/03/27 04:28:19;;;;;;;6.72;2.92;;;29.30;51.30;;;;;;5076929;28;20188;-72
2024/03/27 04:30:46;;;;;;;6.95;2.42;;;30.00;48.70;;;;;;5076472;28;20189;-73
2024/03/27 04:33:14;;;;;;;13.90;3.58;;;29.70;48.80;;;;;;5077008;28;20217;-70
2024/03/27 04:35:42;;;;;;;10.15;3.05;;;29.10;50.50;;;;;;5076719;28;20275;-71
2024/03/27 04:38:10;;;;;;;7.90;2.60;;;29.90;48.70;;;;;;5074034;28;20227;-72
2024/03/27 04:40:37;;;;;;;7.60;2.55;;;30.60;47.10;;;;;;5077217;28;20187;-71
2024/03/27 04:43:04;;;;;;;7.72;3.45;;;30.40;48.30;;;;;;5075113;28;20531;-76
2024/03/27 04:45:32;;;;;;;6.50;2.75;;;30.50;48.20;;;;;;5079514;28;20182;-71
2024/03/27 04:47:59;;;;;;;6.32;2.72;;;30.20;49.30;;;;;;5075485;28;20226;-72
2024/03/27 04:50:26;;;;;;;7.57;2.47;;;30.80;47.40;;;;;;5076479;28;20180;-71
2024/03/27 04:52:54;;;;;;;6.32;2.63;;;30.30;47.90;;;;;;5073527;28;20282;-69
2024/03/27 04:55:21;;;;;;;7.30;2.47;;;29.90;49.40;;;;;;5078022;28;20175;-70
2024/03/27 04:57:48;;;;;;;8.10;2.45;;;30.40;48.20;;;;;;5075763;28;20266;-70
2024/03/27 05:00:16;;;;;;;6.72;2.50;;;30.90;47.70;;;;;;5080771;28;20182;-70
2024/03/27 05:02:43;;;;;;;6.35;2.58;;;30.90;46.90;;;;;;5072080;28;20198;-69
2024/03/27 05:05:10;;;;;;;10.18;2.92;;;31.10;47.30;;;;;;5073506;28;20446;-72
2024/03/27 05:07:38;;;;;;;8.05;2.75;;;31.00;47.10;;;;;;5070802;28;20190;-70
2024/03/27 05:10:05;;;;;;;6.93;2.97;;;30.70;47.70;;;;;;5077222;28;20723;-70
2024/03/27 05:12:33;;;;;;;9.48;2.67;;;31.10;46.50;;;;;;5072690;28;20246;-73
2024/03/27 05:15:00;;;;;;;5.65;2.72;;;30.80;47.80;;;;;;5072883;28;20178;-70
2024/03/27 05:17:27;;;;;;;7.63;2.63;;;30.70;46.90;;;;;;5072297;28;20205;-71
2024/03/27 05:19:54;;;;;;;7.55;2.70;;;30.10;47.50;;;;;;5072451;28;20203;-72
2024/03/27 05:22:27;;;;;;;4.80;2.63;;;29.90;47.90;;;;;;5068322;28;20175;-70
2024/03/27 05:24:55;;;;;;;7.88;2.85;;;28.90;51.20;;;;;;5073336;28;20183;-71
2024/03/27 05:27:23;;;;;;;6.97;2.40;;;29.80;49.20;;;;;;5075465;28;20175;-71
2024/03/27 05:29:50;;;;;;;8.23;2.55;;;30.00;48.90;;;;;;5075529;28;20244;-70
2024/03/27 05:32:18;;;;;;;5.28;2.72;;;30.00;49.10;;;;;;5080704;28;20210;-71
2024/03/27 05:34:45;;;;;;;6.43;2.30;;;30.10;48.50;;;;;;5081192;28;20187;-70
2024/03/27 05:37:12;;;;;;;6.97;2.95;;;29.90;49.30;;;;;;5082059;28;20187;-72
2024/03/27 05:39:40;;;;;;;13.07;2.83;;;30.40;47.50;;;;;;5082224;28;20235;-71
2024/03/27 05:42:09;;;;;;;13.65;3.17;;;29.60;49.10;;;;;;5084257;28;20182;-72
2024/03/27 05:44:36;;;;;;;7.32;2.97;;;29.20;50.60;;;;;;5077541;28;20250;-73
2024/03/27 05:47:04;;;;;;;7.95;2.53;;;29.20;49.90;;;;;;5084811;28;20181;-73
2024/03/27 05:49:31;;;;;;;4.80;2.60;;;29.30;49.30;;;;;;5077792;28;20270;-75
2024/03/27 05:51:58;;;;;;;6.60;2.75;;;29.10;49.80;;;;;;5085426;28;20206;-77
2024/03/27 05:54:25;;;;;;;9.13;2.70;;;29.60;49.00;;;;;;5069850;28;20634;-74
2024/03/27 05:56:53;;;;;;;8.00;2.67;;;30.00;48.90;;;;;;5084044;28;20698;-76
2024/03/27 05:59:20;;;;;;;5.13;2.22;;;29.50;49.60;;;;;;5076987;28;20184;-74
2024/03/27 06:01:48;;;;;;;6.72;3.03;;;29.50;50.00;;;;;;5078353;28;20268;-75
2024/03/27 06:04:15;;;;;;;5.70;2.80;;;29.60;48.50;;;;;;5076740;28;20219;-74
2024/03/27 06:06:42;;;;;;;7.53;3.00;;;28.90;50.60;;;;;;5083201;28;20198;-74
2024/03/27 06:09:10;;;;;;;8.13;3.10;;;29.10;50.30;;;;;;5077138;28;20194;-73
2024/03/27 06:11:37;;;;;;;11.20;3.22;;;29.60;49.20;;;;;;5083065;28;20202;-75
2024/03/27 06:14:05;;;;;;;6.47;2.75;;;30.00;47.50;;;;;;5077889;28;20179;-75
2024/03/27 06:16:32;;;;;;;6.65;2.70;;;30.50;45.40;;;;;;5081483;28;20535;-74
2024/03/27 06:18:59;;;;;;;8.00;2.53;;;30.60;45.00;;;;;;5078739;28;20327;-74
2024/03/27 06:21:27;;;;;;;8.80;2.70;;;30.80;43.80;;;;;;5080838;28;20214;-73
2024/03/27 06:23:54;;;;;;;7.80;2.78;;;30.80;45.00;;;;;;5079743;28;20628;-76
2024/03/27 06:26:22;;;;;;;7.07;2.67;;;30.70;45.50;;;;;;5061486;28;20183;-76
2024/03/27 06:28:49;;;;;;;4.90;2.45;;;30.40;45.90;;;;;;5081932;28;20182;-75
2024/03/27 06:31:16;;;;;;;7.60;2.80;;;30.30;47.20;;;;;;5074350;28;20312;-74
2024/03/27 06:33:44;;;;;;;10.15;3.10;;;30.00;47.90;;;;;;5074543;28;20270;-75
2024/03/27 06:36:11;;;;;;;7.35;2.60;;;30.30;46.90;;;;;;5079068;28;20194;-74
2024/03/27 06:38:41;;;;;;;7.30;2.75;;;30.40;46.20;;;;;;5062022;28;20214;-74
2024/03/27 06:41:08;;;;;;;8.00;3.17;;;30.30;46.30;;;;;;5079814;28;20523;-75
2024/03/27 06:43:36;;;;;;;7.60;2.88;;;30.00;47.50;;;;;;5081854;28;20179;-75
2024/03/27 06:46:04;;;;;;;9.63;2.67;;;28.90;49.60;;;;;;5078351;28;20533;-75
2024/03/27 06:48:43;;;;;;;7.43;3.00;;;29.20;48.50;;;;;;5082874;28;20178;-76
2024/03/27 06:51:11;;;;;;;6.93;2.63;;;28.90;49.70;;;;;;5083406;28;20240;-72
2024/03/27 06:53:38;;;;;;;6.65;2.90;;;29.60;48.30;;;;;;5082193;28;20537;-74
2024/03/27 06:56:06;;;;;;;10.33;2.90;;;28.60;51.10;;;;;;5078380;28;20224;-70
2024/03/27 06:58:33;;;;;;;6.80;2.53;;;28.50;50.20;;;;;;5082716;28;20327;-72
2024/03/27 07:01:02;;;;;;;11.93;3.33;;;27.90;52.00;;;;;;5079638;28;20183;-69
2024/03/27 07:03:29;;;;;;;7.23;3.40;;;27.60;54.80;;;;;;5084347;28;20182;-72
2024/03/27 07:05:56;;;;;;;9.03;3.40;;;28.30;51.40;;;;;;5079208;28;20542;-72
2024/03/27 07:08:24;;;;;;;13.20;3.37;;;28.40;51.20;;;;;;5085862;28;20174;-73
2024/03/27 07:11:02;;;;;;;8.33;2.93;;;28.50;51.30;;;;;;5081804;28;20282;-72
2024/03/27 07:13:29;;;;;;;6.33;2.93;;;27.40;54.00;;;;;;5087538;28;20181;-73
2024/03/27 07:15:57;;;;;;;10.07;3.00;;;26.80;54.90;;;;;;5079587;28;20175;-70
2024/03/27 07:18:24;;;;;;;8.40;3.10;;;26.70;55.80;;;;;;5073779;28;20553;-71
2024/03/27 07:20:58;;;;;;;8.23;2.97;;;26.40;57.60;;;;;;5077588;28;20194;-71
2024/03/27 07:23:28;;;;;;;8.07;3.70;;;26.80;57.10;;;;;;5076194;28;20183;-69
2024/03/27 07:25:56;;;;;;;10.33;3.10;;;26.30;57.80;;;;;;5072146;28;20209;-71
2024/03/27 07:28:23;;;;;;;9.77;3.77;;;26.00;58.50;;;;;;5077741;28;20244;-72
2024/03/27 07:30:54;;;;;;;8.93;3.80;;;25.20;61.40;;;;;;5073451;28;20713;-72
2024/03/27 07:33:21;;;;;;;10.77;3.83;;;25.00;61.90;;;;;;5077044;28;20183;-71
2024/03/27 07:35:49;;;;;;;7.20;3.67;;;24.60;63.20;;;;;;5077821;28;20183;-71
2024/03/27 07:38:17;;;;;;;11.80;3.50;;;24.30;65.10;;;;;;5078492;28;20276;-70
2024/03/27 07:40:46;;;;;;;13.70;3.83;;;24.20;65.90;;;;;;5074388;28;20211;-70
2024/03/27 07:43:14;;;;;;;11.80;5.10;;;24.10;65.90;;;;;;5074456;28;20282;-71
2024/03/27 07:45:42;;;;;;;9.57;5.13;;;24.00;66.80;;;;;;5075946;28;20186;-73
2024/03/27 07:48:09;;;;;;;10.37;4.40;;;24.00;66.80;;;;;;5076093;28;20172;-71
2024/03/27 07:50:37;;;;;;;8.37;3.70;;;23.80;67.10;;;;;;5072211;28;20186;-71
2024/03/27 07:53:04;;;;;;;7.40;3.90;;;23.80;68.00;;;;;;5077986;28;20211;-72
2024/03/27 07:55:31;;;;;;;10.03;3.83;;;23.70;68.30;;;;;;5073318;28;20175;-71
2024/03/27 07:57:59;;;;;;;12.70;4.27;;;23.60;69.20;;;;;;5074361;28;20187;-70
2024/03/27 08:00:26;;;;;;;6.17;4.00;;;23.60;69.20;;;;;;5080797;28;20184;-71
2024/03/27 08:02:54;;;;;;;11.47;4.03;;;23.60;69.90;;;;;;5080922;28;20267;-73
2024/03/27 08:05:21;;;;;;;10.97;4.50;;;23.50;69.70;;;;;;5081151;28;20190;-70
2024/03/27 08:07:49;;;;;;;10.60;4.13;;;23.40;70.30;;;;;;5080986;28;20641;-75
2024/03/27 08:10:16;;;;;;;12.50;5.00;;;23.30;70.40;;;;;;5078839;28;20604;-74
2024/03/27 08:12:43;;;;;;;17.37;4.40;;;23.20;70.90;;;;;;5081383;28;20627;-73
2024/03/27 08:15:13;;;;;;;12.17;4.53;;;23.10;71.60;;;;;;5060626;28;20269;-75
2024/03/27 08:17:40;;;;;;;15.03;4.87;;;23.10;71.70;;;;;;5075724;28;20190;-72
2024/03/27 08:20:08;;;;;;;8.40;4.93;;;23.10;72.10;;;;;;5081521;28;20171;-76
2024/03/27 08:22:35;;;;;;;9.60;5.07;;;23.00;72.50;;;;;;5083056;28;20176;-71
2024/03/27 08:25:03;;;;;;;11.43;4.63;;;23.20;71.80;;;;;;5076773;28;20187;-72
2024/03/27 08:27:30;;;;;;;11.33;4.43;;;23.00;71.70;;;;;;5080998;28;20187;-73
2024/03/27 08:29:57;;;;;;;13.10;4.30;;;23.00;72.30;;;;;;5081023;28;20182;-74
2024/03/27 08:32:25;;;;;;;14.60;4.47;;;22.90;72.30;;;;;;5085123;28;20238;-74
2024/03/27 08:34:54;;;;;;;8.63;4.67;;;22.90;72.90;;;;;;5079852;28;20655;-73
2024/03/27 08:37:21;;;;;;;10.50;4.23;;;22.80;73.50;;;;;;5076133;28;20183;-72
2024/03/27 08:39:48;;;;;;;11.17;5.17;;;22.80;73.90;;;;;;5078870;28;20296;-71
2024/03/27 08:42:17;;;;;;;10.93;6.50;;;22.80;74.00;;;;;;5079207;28;20186;-72
2024/03/27 08:44:44;;;;;;;10.07;4.97;;;22.80;74.40;;;;;;5076163;28;20614;-75
2024/03/27 08:47:11;;;;;;;11.10;5.10;;;22.80;74.50;;;;;;5076853;28;20193;-74
2024/03/27 08:49:39;;;;;;;9.53;4.70;;;22.80;74.70;;;;;;5077203;28;20183;-72
2024/03/27 08:52:07;;;;;;;9.17;5.30;;;22.80;74.90;;;;;;5078342;28;20222;-74
2024/03/27 08:54:34;;;;;;;14.13;4.87;;;22.80;75.00;;;;;;5078007;28;20551;-74
2024/03/27 08:57:02;;;;;;;10.63;4.70;;;22.80;75.20;;;;;;5083354;28;20183;-71
2024/03/27 08:59:29;;;;;;;11.67;5.57;;;22.80;75.60;;;;;;5081003;28;20187;-73
2024/03/27 09:01:57;;;;;;;18.27;5.73;;;22.60;75.90;;;;;;5079023;28;20187;-73
2024/03/27 09:04:24;;;;;;;16.40;5.23;;;22.60;76.20;;;;;;5074907;28;20182;-72
2024/03/27 09:06:51;;;;;;;13.93;5.17;;;22.60;76.40;;;;;;5074849;28;20187;-71
2024/03/27 09:09:19;;;;;;;10.60;4.97;;;22.70;76.50;;;;;;5073966;28;20177;-73
2024/03/27 09:11:46;;;;;;;12.30;4.73;;;22.60;76.70;;;;;;5081203;28;20295;-71
2024/03/27 09:14:14;;;;;;;13.33;4.63;;;22.70;76.80;;;;;;5080804;28;20175;-71
2024/03/27 09:16:42;;;;;;;9.87;4.40;;;22.80;76.80;;;;;;5080367;28;20187;-71
2024/03/27 09:19:09;;;;;;;12.20;5.30;;;22.80;76.80;;;;;;5080567;28;20244;-72
2024/03/27 09:21:37;;;;;;;13.37;4.90;;;22.70;76.90;;;;;;5082695;28;20183;-71
2024/03/27 09:24:04;;;;;;;13.33;4.67;;;22.70;77.00;;;;;;5082588;28;20512;-71
2024/03/27 09:26:31;;;;;;;12.30;4.37;;;22.70;77.30;;;;;;5083765;28;20178;-73
2024/03/27 09:29:00;;;;;;;11.53;5.13;;;22.70;77.30;;;;;;5081577;28;20683;-71
2024/03/27 09:31:27;;;;;;;15.63;5.10;;;22.80;77.10;;;;;;5083680;28;20341;-71
2024/03/27 09:33:55;;;;;;;13.13;4.53;;;22.70;77.40;;;;;;5078461;28;20187;-72
2024/03/27 09:36:25;;;;;;;9.77;4.40;;;22.80;77.50;;;;;;5086612;28;20205;-71
2024/03/27 09:38:52;;;;;;;9.90;4.30;;;22.80;77.60;;;;;;5078219;28;20241;-71
2024/03/27 09:41:20;;;;;;;12.40;4.87;;;22.80;77.60;;;;;;5083064;28;20225;-71
2024/03/27 09:43:47;;;;;;;9.67;4.40;;;22.80;77.70;;;;;;5080442;28;20533;-73
2024/03/27 09:46:15;;;;;;;12.97;4.77;;;22.80;77.70;;;;;;5082296;28;20524;-71
2024/03/27 09:48:43;;;;;;;10.50;4.87;;;22.80;77.50;;;;;;5082765;28;20624;-71
2024/03/27 09:51:12;;;;;;;13.53;4.50;;;22.80;77.90;;;;;;5079371;28;20210;-72
2024/03/27 09:53:43;;;;;;;11.80;5.07;;;22.80;77.90;;;;;;5081374;28;20178;-71
2024/03/27 09:56:11;;;;;;;10.33;4.30;;;22.80;78.00;;;;;;5076988;28;20186;-72
2024/03/27 09:58:39;;;;;;;7.97;4.80;;;22.80;77.90;;;;;;5078886;28;20183;-73
2024/03/27 10:01:07;;;;;;;11.73;4.80;;;22.80;78.10;;;;;;5076629;28;20538;-71
2024/03/27 10:03:37;;;;;;;11.37;4.77;;;22.70;78.20;;;;;;5074730;28;20544;-71
2024/03/27 10:06:05;;;;;;;10.30;4.43;;;22.80;78.20;;;;;;5077099;28;20179;-70
2024/03/27 10:08:32;;;;;;;11.83;4.30;;;22.70;78.40;;;;;;5076255;28;20179;-74
2024/03/27 10:11:01;;;;;;;13.50;5.20;;;22.60;78.50;;;;;;5078913;28;20179;-71
2024/03/27 10:13:28;;;;;;;14.83;4.97;;;22.60;78.80;;;;;;5080339;28;20195;-72
2024/03/27 10:15:56;;;;;;;15.17;5.13;;;22.60;79.00;;;;;;5078639;28;20186;-71
2024/03/27 10:18:24;;;;;;;11.70;5.20;;;22.60;79.20;;;;;;5084331;28;20186;-73
2024/03/27 10:20:52;;;;;;;13.80;4.50;;;22.60;79.40;;;;;;5079685;28;20551;-72
2024/03/27 10:23:22;;;;;;;11.40;4.77;;;22.60;79.50;;;;;;5089391;28;20203;-74
2024/03/27 10:25:50;;;;;;;15.00;5.60;;;22.50;79.60;;;;;;5081563;28;20190;-73
2024/03/27 10:28:17;;;;;;;10.70;4.63;;;22.50;79.80;;;;;;5083382;28;20257;-72
2024/03/27 10:30:44;;;;;;;12.33;5.90;;;22.30;80.00;;;;;;5080650;28;20667;-75
2024/03/27 10:33:12;;;;;;;12.30;5.70;;;22.30;80.40;;;;;;5083704;28;20198;-76
2024/03/27 10:35:39;;;;;;;9.93;4.93;;;22.30;80.30;;;;;;5081337;28;20601;-72
2024/03/27 10:38:07;;;;;;;12.17;4.70;;;22.30;80.50;;;;;;5082251;28;20218;-74
2024/03/27 10:40:36;;;;;;;13.07;5.43;;;22.30;80.60;;;;;;5075755;28;20186;-74
2024/03/27 10:43:25;;;;;;;13.33;6.30;;;22.20;80.70;;;;;;5079147;28;20175;-72
2024/03/27 10:45:55;;;;;;;12.23;6.47;;;22.30;81.10;;;;;;5079696;28;20174;-73
2024/03/27 10:48:23;;;;;;;14.83;6.10;;;22.20;81.10;;;;;;5085404;28;20641;-73
2024/03/27 10:50:51;;;;;;;12.43;6.50;;;22.20;81.30;;;;;;5082968;28;20191;-75
2024/03/27 10:53:22;;;;;;;14.93;7.00;;;22.10;81.20;;;;;;5083545;28;20292;-73
2024/03/27 10:55:50;;;;;;;20.07;7.57;;;22.10;81.50;;;;;;5080099;28;20240;-71
2024/03/27 10:58:17;;;;;;;12.97;7.50;;;22.00;81.50;;;;;;5085227;28;20178;-72
2024/03/27 11:00:45;;;;;;;15.87;8.20;;;22.00;81.40;;;;;;5078697;28;20180;-75
2024/03/27 11:03:15;;;;;;;18.17;8.37;;;22.00;81.60;;;;;;5083680;28;20183;-75
2024/03/27 11:05:49;;;;;;;12.17;8.87;;;22.00;81.80;;;;;;5075200;28;20180;-72
2024/03/27 11:08:21;;;;;;;16.30;9.00;;;22.00;81.60;;;;;;5081781;28;20532;-72
2024/03/27 11:10:48;;;;;;;15.50;10.20;;;22.00;81.70;;;;;;5075336;28;20174;-72
2024/03/27 11:13:16;;;;;;;13.97;9.27;;;21.90;81.50;;;;;;5081572;28;20548;-72
2024/03/27 11:15:43;;;;;;;12.87;9.80;;;21.90;81.80;;;;;;5075025;28;20625;-73
2024/03/27 11:18:18;;;;;;;13.53;9.20;;;21.80;81.80;;;;;;5079486;28;20604;-73
2024/03/27 11:20:57;;;;;;;13.73;10.90;;;21.80;82.00;;;;;;5078539;28;20190;-73
2024/03/27 11:23:35;;;;;;;15.07;10.70;;;21.80;82.00;;;;;;5082245;28;20565;-73
2024/03/27 11:26:03;;;;;;;17.90;11.43;;;21.80;82.20;;;;;;5082424;28;20199;-72
2024/03/27 11:28:34;;;;;;;16.70;12.57;;;21.90;82.10;;;;;;5082816;28;20210;-74
2024/03/27 11:31:06;;;;;;;22.40;13.50;;;21.90;82.10;;;;;;5085281;28;20655;-75
2024/03/27 11:33:34;;;;;;;19.47;14.37;;;21.90;82.10;;;;;;5082295;28;20202;-74
2024/03/27 11:36:01;;;;;;;16.20;13.57;;;21.90;81.90;;;;;;5084215;28;20641;-73
2024/03/27 11:38:29;;;;;;;15.43;13.53;;;21.90;82.00;;;;;;5081456;28;20234;-72
2024/03/27 11:40:56;;;;;;;20.10;13.33;;;21.90;82.10;;;;;;5083261;28;20252;-73
2024/03/27 11:43:26;;;;;;;16.40;14.37;;;21.90;82.10;;;;;;5079856;28;20709;-73
2024/03/27 11:45:54;;;;;;;18.20;13.70;;;21.90;82.20;;;;;;5081269;28;20182;-72
2024/03/27 11:48:21;;;;;;;20.47;14.83;;;21.90;82.30;;;;;;5097035;28;20180;-74
2024/03/27 11:50:48;;;;;;;19.93;14.43;;;21.90;82.40;;;;;;5082872;28;20194;-72
2024/03/27 11:53:16;;;;;;;19.27;15.50;;;21.90;82.50;;;;;;5083670;28;20197;-72
2024/03/27 11:55:44;;;;;;;20.27;16.53;;;21.90;82.50;;;;;;5081866;28;20194;-72
2024/03/27 11:58:12;;;;;;;21.23;18.20;;;21.90;82.80;;;;;;5081972;28;20671;-73
2024/03/27 12:00:41;;;;;;;20.37;17.13;;;22.00;82.80;;;;;;5079072;28;20629;-72
2024/03/27 12:03:11;;;;;;;22.60;20.43;;;22.00;82.80;;;;;;5082040;28;20179;-74
2024/03/27 12:05:38;;;;;;;23.07;20.57;;;22.00;82.40;;;;;;5079579;28;20184;-73
2024/03/27 12:08:06;;;;;;;25.47;23.33;;;22.00;82.40;;;;;;5080167;28;20183;-75
2024/03/27 12:10:33;;;;;;;27.33;24.97;;;22.00;82.40;;;;;;5075401;28;20191;-72
2024/03/27 12:13:05;;;;;;;30.10;27.33;;;22.00;82.60;;;;;;5080468;28;20215;-74
2024/03/27 12:15:32;;;;;;;27.40;25.17;;;21.90;82.70;;;;;;5079680;28;20190;-71
2024/03/27 12:18:00;;;;;;;29.53;26.90;;;21.80;82.70;;;;;;5082611;28;20183;-71
2024/03/27 12:20:35;;;;;;;32.63;29.80;;;21.80;82.80;;;;;;5076293;28;20176;-72
2024/03/27 12:23:02;;;;;;;31.43;28.93;;;21.80;83.10;;;;;;5082113;28;20235;-73
2024/03/27 12:25:32;;;;;;;33.23;29.97;;;21.80;83.30;;;;;;5080773;28;20211;-71
2024/03/27 12:28:05;;;;;;;32.77;29.50;;;21.60;83.30;;;;;;5070673;28;20187;-74
2024/03/27 12:30:38;;;;;;;36.17;33.63;;;21.60;83.40;;;;;;5074424;28;20222;-72
2024/03/27 12:33:05;;;;;;;39.17;36.00;;;21.50;83.60;;;;;;5080361;28;20221;-71
2024/03/27 12:35:36;;;;;;;38.70;35.53;;;21.50;83.70;;;;;;5074760;28;20179;-71
2024/03/27 12:38:04;;;;;;;36.13;33.77;;;21.50;83.80;;;;;;5077612;28;20704;-71
2024/03/27 12:40:31;;;;;;;37.83;34.97;;;21.50;84.00;;;;;;5074628;28;20191;-74
2024/03/27 12:42:59;;;;;;;38.33;35.53;;;21.50;84.00;;;;;;5074067;28;20183;-72
2024/03/27 12:45:26;;;;;;;39.80;36.50;;;21.40;83.90;;;;;;5074044;28;20187;-73